createdAt,value
2019-05-15T00:02:18.440Z,8.80
2019-05-15T00:04:49.008Z,8.90
2019-05-15T00:07:18.297Z,8.90
2019-05-15T00:09:50.485Z,8.80
2019-05-15T00:12:18.892Z,8.80
2019-05-15T00:14:48.436Z,8.80
2019-05-15T00:17:16.186Z,8.70
2019-05-15T00:19:43.879Z,8.70
2019-05-15T00:22:12.035Z,8.60
2019-05-15T00:24:39.348Z,8.60
2019-05-15T00:27:13.381Z,8.50
2019-05-15T00:29:44.162Z,8.50
2019-05-15T00:32:11.917Z,8.50
2019-05-15T00:34:39.506Z,8.50
2019-05-15T00:37:08.947Z,8.40
2019-05-15T00:39:36.272Z,8.40
2019-05-15T00:42:05.073Z,8.40
2019-05-15T00:44:33.066Z,8.30
2019-05-15T00:47:03.447Z,8.30
2019-05-15T00:49:32.518Z,8.30
2019-05-15T00:52:01.248Z,8.30
2019-05-15T00:54:31.022Z,8.20
2019-05-15T00:56:58.811Z,8.20
2019-05-15T00:59:29.745Z,8.20
2019-05-15T01:01:55.672Z,8.20
2019-05-15T01:04:22.993Z,8.20
2019-05-15T01:06:52.669Z,8.10
2019-05-15T01:09:20.627Z,8.10
2019-05-15T01:11:48.883Z,8.10
2019-05-15T01:14:18.537Z,8.10
2019-05-15T01:16:48.993Z,8.00
2019-05-15T01:19:18.522Z,8.10
2019-05-15T01:21:48.120Z,8.00
2019-05-15T01:24:15.874Z,8.00
2019-05-15T01:26:43.330Z,7.90
2019-05-15T01:29:11.810Z,7.80
2019-05-15T01:31:41.906Z,7.80
2019-05-15T01:34:09.452Z,7.80
2019-05-15T01:36:38.227Z,7.80
2019-05-15T01:39:07.970Z,7.80
2019-05-15T01:41:40.481Z,7.70
2019-05-15T01:44:09.259Z,7.70
2019-05-15T01:46:39.284Z,7.60
2019-05-15T01:49:08.022Z,7.60
2019-05-15T01:51:35.856Z,7.60
2019-05-15T01:54:04.222Z,7.60
2019-05-15T01:56:32.746Z,7.50
2019-05-15T01:59:08.692Z,7.50
2019-05-15T02:01:38.936Z,7.50
2019-05-15T02:04:05.593Z,7.40
2019-05-15T02:06:38.900Z,7.40
2019-05-15T02:09:10.910Z,7.40
2019-05-15T02:11:38.642Z,7.40
2019-05-15T02:14:08.245Z,7.40
2019-05-15T02:16:35.726Z,7.30
2019-05-15T02:19:03.273Z,7.30
2019-05-15T02:21:31.569Z,7.30
2019-05-15T02:23:59.226Z,7.30
2019-05-15T02:26:28.202Z,7.30
2019-05-15T02:28:55.980Z,7.30
2019-05-15T02:31:30.663Z,7.20
2019-05-15T02:34:00.592Z,7.10
2019-05-15T02:36:29.271Z,7.10
2019-05-15T02:38:59.708Z,7.10
2019-05-15T02:41:32.817Z,7.10
2019-05-15T02:44:00.632Z,7.00
2019-05-15T02:46:30.043Z,7.00
2019-05-15T02:48:59.191Z,7.00
2019-05-15T02:51:29.826Z,6.90
2019-05-15T02:53:58.618Z,6.90
2019-05-15T02:56:29.087Z,6.90
2019-05-15T02:59:00.215Z,6.90
2019-05-15T03:01:28.533Z,6.90
2019-05-15T03:03:59.433Z,6.80
2019-05-15T03:06:29.555Z,6.80
2019-05-15T03:08:56.106Z,6.70
2019-05-15T03:11:24.287Z,6.80
2019-05-15T03:13:51.668Z,6.70
2019-05-15T03:16:19.662Z,6.70
2019-05-15T03:18:50.543Z,6.60
2019-05-15T03:21:18.745Z,6.60
2019-05-15T03:23:50.421Z,6.60
2019-05-15T03:26:19.825Z,6.60
2019-05-15T03:28:49.366Z,6.50
2019-05-15T03:31:35.186Z,6.50
2019-05-15T03:33:47.261Z,6.50
2019-05-15T03:36:15.335Z,6.50
2019-05-15T03:38:43.090Z,6.40
2019-05-15T03:41:10.798Z,6.40
2019-05-15T03:43:49.357Z,6.30
2019-05-15T03:46:15.719Z,6.30
2019-05-15T03:48:48.544Z,6.30
2019-05-15T03:51:15.915Z,6.30
2019-05-15T03:53:43.987Z,6.30
2019-05-15T03:56:11.974Z,6.30
2019-05-15T03:58:40.554Z,6.20
2019-05-15T04:01:28.316Z,6.30
2019-05-15T04:03:44.259Z,6.20
2019-05-15T04:06:11.465Z,6.20
2019-05-15T04:08:39.422Z,6.20
2019-05-15T04:11:09.245Z,6.20
2019-05-15T04:13:39.828Z,6.20
2019-05-15T04:16:10.356Z,6.20
2019-05-15T04:18:39.561Z,6.20
2019-05-15T04:21:09.209Z,6.20
2019-05-15T04:23:39.226Z,6.10
2019-05-15T04:26:08.945Z,6.20
2019-05-15T04:28:35.266Z,6.20
2019-05-15T04:31:02.671Z,6.20
2019-05-15T04:33:30.351Z,6.20
2019-05-15T04:35:59.088Z,6.30
2019-05-15T04:38:29.193Z,6.30
2019-05-15T04:40:59.073Z,6.30
2019-05-15T04:43:29.192Z,6.40
2019-05-15T04:45:59.264Z,6.40
2019-05-15T04:48:24.797Z,6.60
2019-05-15T04:50:52.339Z,6.70
2019-05-15T04:53:20.033Z,6.90
2019-05-15T04:55:49.204Z,7.00
2019-05-15T04:58:20.912Z,7.10
2019-05-15T05:00:50.234Z,7.30
2019-05-15T05:03:22.409Z,7.40
2019-05-15T05:05:50.442Z,7.50
2019-05-15T05:08:20.017Z,7.70
2019-05-15T05:10:49.084Z,8.00
2019-05-15T05:13:19.813Z,8.10
2019-05-15T05:15:50.345Z,8.20
2019-05-15T05:18:18.981Z,8.30
2019-05-15T05:20:48.508Z,8.50
2019-05-15T05:23:19.279Z,8.70
2019-05-15T05:25:57.966Z,8.90
2019-05-15T05:28:28.980Z,9.00
2019-05-15T05:30:58.759Z,9.10
2019-05-15T05:33:28.447Z,9.40
2019-05-15T05:36:01.291Z,9.70
2019-05-15T05:38:29.830Z,10.00
2019-05-15T05:40:58.623Z,10.10
2019-05-15T05:43:33.420Z,10.40
2019-05-15T05:46:01.291Z,10.70
2019-05-15T05:48:33.172Z,11.00
2019-05-15T05:51:04.052Z,11.40
2019-05-15T05:53:31.753Z,11.70
2019-05-15T05:55:59.344Z,11.90
2019-05-15T05:58:29.753Z,12.30
2019-05-15T06:00:58.628Z,12.60
2019-05-15T06:03:28.105Z,13.00
2019-05-15T06:08:32.320Z,13.10
2019-05-15T06:11:00.793Z,13.10
2019-05-15T06:13:29.062Z,13.50
2019-05-15T06:15:59.047Z,13.90
2019-05-15T06:18:28.182Z,14.00
2019-05-15T06:20:58.699Z,14.40
2019-05-15T06:23:33.698Z,14.70
2019-05-15T06:25:59.240Z,15.00
2019-05-15T06:28:29.510Z,15.70
2019-05-15T06:31:00.743Z,15.90
2019-05-15T06:33:28.698Z,16.40
2019-05-15T06:35:59.204Z,16.80
2019-05-15T06:38:30.869Z,17.30
2019-05-15T06:40:59.235Z,17.10
2019-05-15T06:43:28.129Z,17.20
2019-05-15T06:45:55.420Z,17.70
2019-05-15T06:48:23.451Z,17.60
2019-05-15T06:50:50.874Z,17.60
2019-05-15T06:53:24.702Z,18.00
2019-05-15T06:55:52.185Z,17.90
2019-05-15T06:58:20.125Z,18.20
2019-05-15T07:00:48.810Z,18.10
2019-05-15T07:03:24.807Z,18.50
2019-05-15T07:05:46.111Z,18.60
2019-05-15T07:08:13.622Z,18.80
2019-05-15T07:10:41.239Z,19.10
2019-05-15T07:13:08.938Z,18.90
2019-05-15T07:15:38.380Z,19.40
2019-05-15T07:18:05.856Z,19.70
2019-05-15T07:20:33.463Z,20.10
2019-05-15T07:23:01.348Z,20.20
2019-05-15T07:25:39.813Z,19.80
2019-05-15T07:28:08.833Z,20.30
2019-05-15T07:30:41.229Z,20.40
2019-05-15T07:33:08.852Z,20.70
2019-05-15T07:35:38.456Z,20.50
2019-05-15T07:38:08.076Z,20.20
2019-05-15T07:40:38.324Z,20.30
2019-05-15T07:43:04.967Z,21.10
2019-05-15T07:45:32.528Z,21.40
2019-05-15T07:48:00.111Z,21.50
2019-05-15T07:50:29.935Z,21.80
2019-05-15T07:52:59.077Z,22.30
2019-05-15T07:55:29.670Z,22.10
2019-05-15T07:57:59.146Z,21.80
2019-05-15T08:00:28.832Z,22.20
2019-05-15T08:02:58.493Z,22.60
2019-05-15T08:05:28.427Z,23.00
2019-05-15T08:07:55.423Z,22.30
2019-05-15T08:10:23.262Z,22.60
2019-05-15T08:12:51.173Z,22.40
2019-05-15T08:15:21.845Z,22.60
2019-05-15T08:18:03.995Z,22.70
2019-05-15T08:20:18.924Z,23.10
2019-05-15T08:22:48.697Z,24.10
2019-05-15T08:25:28.245Z,24.20
2019-05-15T08:27:48.280Z,24.30
2019-05-15T08:30:14.659Z,24.40
2019-05-15T08:32:43.075Z,24.50
2019-05-15T08:35:12.655Z,24.70
2019-05-15T08:37:43.236Z,24.90
2019-05-15T08:40:12.291Z,24.70
2019-05-15T08:42:44.064Z,24.90
2019-05-15T08:45:11.901Z,24.80
2019-05-15T08:47:40.384Z,25.40
2019-05-15T08:50:08.963Z,24.40
2019-05-15T08:52:39.096Z,24.10
2019-05-15T08:55:08.557Z,24.10
2019-05-15T08:57:38.319Z,24.70
2019-05-15T09:00:06.247Z,25.10
2019-05-15T09:02:40.573Z,25.00
2019-05-15T09:05:08.456Z,25.30
2019-05-15T09:07:38.323Z,25.40
2019-05-15T09:10:06.100Z,26.40
2019-05-15T09:12:33.674Z,26.00
2019-05-15T09:15:02.417Z,26.60
2019-05-15T09:17:30.112Z,26.80
2019-05-15T09:19:58.810Z,26.50
2019-05-15T09:22:26.272Z,26.40
2019-05-15T09:24:54.348Z,25.60
2019-05-15T09:27:25.032Z,26.40
2019-05-15T09:29:52.511Z,26.60
2019-05-15T09:32:20.080Z,25.80
2019-05-15T09:34:54.949Z,26.10
2019-05-15T09:37:18.062Z,25.90
2019-05-15T09:39:45.886Z,25.90
2019-05-15T09:42:17.837Z,26.10
2019-05-15T09:44:44.838Z,25.90
2019-05-15T09:47:12.356Z,26.40
2019-05-15T09:49:39.780Z,26.50
2019-05-15T09:52:19.984Z,26.90
2019-05-15T09:54:45.641Z,27.60
2019-05-15T09:57:18.597Z,27.40
2019-05-15T09:59:48.995Z,26.80
2019-05-15T10:02:18.747Z,27.20
2019-05-15T10:04:48.195Z,27.80
2019-05-15T10:07:15.150Z,28.50
2019-05-15T10:09:43.008Z,28.50
2019-05-15T10:12:10.378Z,28.20
2019-05-15T10:14:41.942Z,27.80
2019-05-15T10:17:09.847Z,27.50
2019-05-15T10:19:38.584Z,26.70
2019-05-15T10:22:09.512Z,27.00
2019-05-15T10:24:35.373Z,27.40
2019-05-15T10:27:03.202Z,27.30
2019-05-15T10:29:30.790Z,27.30
2019-05-15T10:31:58.359Z,27.20
2019-05-15T10:34:30.886Z,27.00
2019-05-15T10:36:58.878Z,27.50
2019-05-15T10:39:31.217Z,27.00
2019-05-15T10:41:59.877Z,27.90
2019-05-15T10:44:33.337Z,28.10
2019-05-15T10:47:01.128Z,27.40
2019-05-15T10:49:32.883Z,27.50
2019-05-15T10:52:01.433Z,27.80
2019-05-15T10:54:30.175Z,28.50
2019-05-15T10:57:00.426Z,27.40
2019-05-15T10:59:27.694Z,27.50
2019-05-15T11:01:55.773Z,26.90
2019-05-15T11:04:25.513Z,26.90
2019-05-15T11:06:53.289Z,27.20
2019-05-15T11:09:20.963Z,27.20
2019-05-15T11:11:51.483Z,27.90
2019-05-15T11:14:20.209Z,28.10
2019-05-15T11:16:52.419Z,27.60
2019-05-15T11:19:21.002Z,28.00
2019-05-15T11:21:49.406Z,28.20
2019-05-15T11:24:19.686Z,26.90
2019-05-15T11:26:49.995Z,27.50
2019-05-15T11:29:16.790Z,27.80
2019-05-15T11:31:45.327Z,28.40
2019-05-15T11:34:13.011Z,28.50
2019-05-15T11:36:42.912Z,28.60
2019-05-15T11:39:10.650Z,29.00
2019-05-15T11:41:38.788Z,28.90
2019-05-15T11:44:06.470Z,29.40
2019-05-15T11:46:34.153Z,29.10
2019-05-15T11:49:04.067Z,29.80
2019-05-15T11:51:32.517Z,29.50
2019-05-15T11:54:03.136Z,29.50
2019-05-15T11:56:30.861Z,28.90
2019-05-15T11:58:59.110Z,28.90
2019-05-15T12:01:28.707Z,28.40
2019-05-15T12:03:58.582Z,28.40
2019-05-15T12:06:28.628Z,28.90
2019-05-15T12:08:58.824Z,29.40
2019-05-15T12:11:33.387Z,29.20
2019-05-15T12:13:55.251Z,28.90
2019-05-15T12:16:23.987Z,29.10
2019-05-15T12:18:51.551Z,28.70
2019-05-15T12:21:19.968Z,29.40
2019-05-15T12:23:48.819Z,29.20
2019-05-15T12:26:16.785Z,28.80
2019-05-15T12:28:44.365Z,28.80
2019-05-15T12:31:14.074Z,29.00
2019-05-15T12:33:44.301Z,28.30
2019-05-15T12:36:13.674Z,27.40
2019-05-15T12:38:41.585Z,27.80
2019-05-15T13:01:17.492Z,26.50
2019-05-15T13:03:38.292Z,26.40
2019-05-15T13:06:08.069Z,26.10
2019-05-15T13:08:38.290Z,26.80
2019-05-15T13:11:09.492Z,26.70
2019-05-15T13:13:34.456Z,26.30
2019-05-15T13:16:02.722Z,27.30
2019-05-15T13:18:31.149Z,27.30
2019-05-15T13:21:01.057Z,27.10
2019-05-15T13:23:28.825Z,26.50
2019-05-15T13:25:59.281Z,26.00
2019-05-15T13:28:29.074Z,26.20
2019-05-15T13:30:59.077Z,26.50
2019-05-15T13:33:26.259Z,26.80
2019-05-15T13:35:53.790Z,26.90
2019-05-15T13:38:21.459Z,27.00
2019-05-15T13:40:49.193Z,26.40
2019-05-15T13:43:18.611Z,27.10
2019-05-15T13:45:46.241Z,27.20
2019-05-15T13:48:16.621Z,27.60
2019-05-15T13:50:44.459Z,27.40
2019-05-15T13:53:11.852Z,26.50
2019-05-15T13:55:42.303Z,26.30
2019-05-15T13:58:09.693Z,25.70
2019-05-15T14:00:39.125Z,25.90
2019-05-15T14:03:08.701Z,26.90
2019-05-15T14:05:38.090Z,27.30
2019-05-15T14:08:05.281Z,26.20
2019-05-15T14:10:38.274Z,26.50
2019-05-15T14:13:07.415Z,26.20
2019-05-15T14:15:34.925Z,26.40
2019-05-15T14:18:04.551Z,26.60
2019-05-15T14:20:32.099Z,25.80
2019-05-15T14:22:59.720Z,26.60
2019-05-15T14:25:27.392Z,27.00
2019-05-15T14:27:54.955Z,26.10
2019-05-15T14:30:22.613Z,26.40
2019-05-15T14:32:50.277Z,26.60
2019-05-15T14:35:18.069Z,26.40
2019-05-15T14:38:01.868Z,26.30
2019-05-15T14:40:17.765Z,25.90
2019-05-15T14:42:48.619Z,25.90
2019-05-15T14:45:18.906Z,25.70
2019-05-15T14:47:48.594Z,26.00
2019-05-15T14:50:16.203Z,25.90
2019-05-15T14:52:45.053Z,25.90
2019-05-15T14:55:13.955Z,26.30
2019-05-15T14:57:43.270Z,26.30
2019-05-15T15:00:10.859Z,26.00
2019-05-15T15:02:44.705Z,26.20
2019-05-15T15:05:12.108Z,26.40
2019-05-15T15:07:39.749Z,26.00
2019-05-15T15:10:08.056Z,25.90
2019-05-15T15:12:35.572Z,25.80
2019-05-15T15:15:05.062Z,25.60
2019-05-15T15:17:32.841Z,24.90
2019-05-15T15:20:01.077Z,24.40
2019-05-15T15:22:31.993Z,24.40
2019-05-15T15:25:00.017Z,24.50
2019-05-15T15:27:28.091Z,24.70
2019-05-15T15:29:59.137Z,25.10
2019-05-15T15:32:30.127Z,24.70
2019-05-15T15:35:08.428Z,24.40
2019-05-15T15:37:38.299Z,23.70
2019-05-15T15:40:08.297Z,23.50
2019-05-15T15:42:36.162Z,23.40
2019-05-15T15:45:08.801Z,23.50
2019-05-15T15:47:41.790Z,23.30
2019-05-15T15:50:10.005Z,23.00
2019-05-15T15:52:41.760Z,22.80
2019-05-15T15:55:09.647Z,22.60
2019-05-15T15:57:39.592Z,22.30
2019-05-15T16:00:10.792Z,22.10
2019-05-15T16:02:41.135Z,22.00
2019-05-15T16:05:08.186Z,22.30
2019-05-15T16:07:37.946Z,21.90
2019-05-15T16:10:08.275Z,22.10
2019-05-15T16:12:35.095Z,22.00
2019-05-15T16:15:09.322Z,21.60
2019-05-15T16:17:38.493Z,21.40
2019-05-15T16:20:10.247Z,21.40
2019-05-15T16:22:42.976Z,20.90
2019-05-15T16:25:17.896Z,21.00
2019-05-15T16:27:52.677Z,21.10
2019-05-15T16:30:20.806Z,20.90
2019-05-15T16:32:48.451Z,20.90
2019-05-15T16:35:18.299Z,20.70
2019-05-15T16:37:45.967Z,20.50
2019-05-15T16:40:18.196Z,20.20
2019-05-15T16:42:45.254Z,20.40
2019-05-15T16:45:12.951Z,20.30
2019-05-15T16:47:41.662Z,20.30
2019-05-15T16:50:09.421Z,20.20
2019-05-15T16:52:38.732Z,20.40
2019-05-15T16:55:09.231Z,20.50
2019-05-15T16:57:38.580Z,20.20
2019-05-15T17:00:06.114Z,20.00
2019-05-15T17:02:34.245Z,20.20
2019-05-15T17:05:02.138Z,20.00
2019-05-15T17:07:42.962Z,19.90
2019-05-15T17:10:10.914Z,19.90
2019-05-15T17:12:39.339Z,19.70
2019-05-15T17:15:08.490Z,19.90
2019-05-15T17:17:38.711Z,19.90
2019-05-15T17:20:06.530Z,19.80
2019-05-15T17:22:34.055Z,19.60
2019-05-15T17:25:01.740Z,19.30
2019-05-15T17:27:29.121Z,19.20
2019-05-15T17:29:58.409Z,19.10
2019-05-15T17:32:25.827Z,19.10
2019-05-15T17:34:53.911Z,18.80
2019-05-15T17:37:21.575Z,19.00
2019-05-15T17:39:49.264Z,19.00
2019-05-15T17:42:18.265Z,19.00
2019-05-15T17:44:45.893Z,18.70
2019-05-15T17:47:13.374Z,18.70
2019-05-15T17:49:42.138Z,18.60
2019-05-15T17:52:11.152Z,18.50
2019-05-15T17:54:38.628Z,18.50
2019-05-15T17:57:09.029Z,18.40
2019-05-15T17:59:37.836Z,18.50
2019-05-15T18:02:05.422Z,18.30
2019-05-15T18:04:34.177Z,18.40
2019-05-15T18:07:04.016Z,18.40
2019-05-15T18:09:31.829Z,18.20
2019-05-15T18:11:59.539Z,18.00
2019-05-15T18:14:27.010Z,18.00
2019-05-15T18:16:55.193Z,17.90
2019-05-15T18:19:24.747Z,17.90
2019-05-15T18:21:59.082Z,17.80
2019-05-15T18:24:29.319Z,17.60
2019-05-15T18:26:59.181Z,17.70
2019-05-15T18:29:27.155Z,17.80
2019-05-15T18:31:57.790Z,17.90
2019-05-15T18:34:25.704Z,18.00
2019-05-15T18:36:53.741Z,17.60
2019-05-15T18:39:23.661Z,17.60
2019-05-15T18:41:51.402Z,17.50
2019-05-15T18:44:19.169Z,17.40
2019-05-15T18:46:48.973Z,17.30
2019-05-15T18:49:17.948Z,17.30
2019-05-15T18:51:48.087Z,17.00
2019-05-15T18:54:18.872Z,17.00
2019-05-15T18:56:48.810Z,16.90
2019-05-15T18:59:17.721Z,16.90
2019-05-15T19:01:47.985Z,16.70
2019-05-15T19:04:18.141Z,16.60
2019-05-15T19:06:45.266Z,16.40
2019-05-15T19:09:13.652Z,16.50
2019-05-15T19:11:41.433Z,16.40
2019-05-15T19:14:08.955Z,16.40
2019-05-15T19:16:38.762Z,16.20
2019-05-15T19:19:08.486Z,16.00
2019-05-15T19:21:38.272Z,15.90
2019-05-15T19:24:07.743Z,15.90
2019-05-15T19:26:35.431Z,15.90
2019-05-15T19:29:04.893Z,15.80
2019-05-15T19:31:32.776Z,15.80
2019-05-15T19:34:00.440Z,15.70
2019-05-15T19:36:29.516Z,15.60
2019-05-15T19:39:02.092Z,15.60
2019-05-15T19:41:31.055Z,15.30
2019-05-15T19:43:58.816Z,15.10
2019-05-15T19:46:28.895Z,15.20
2019-05-15T19:48:58.696Z,15.00
2019-05-15T19:51:31.005Z,14.90
2019-05-15T19:54:00.324Z,14.80
2019-05-15T19:56:28.636Z,14.60
2019-05-15T19:58:58.423Z,14.40
2019-05-15T20:01:28.249Z,14.30
2019-05-15T20:03:58.192Z,14.30
2019-05-15T20:06:28.102Z,14.30
2019-05-15T20:08:58.466Z,14.20
2019-05-15T20:11:27.927Z,14.10
2019-05-15T20:13:58.144Z,14.20
2019-05-15T20:16:28.176Z,14.10
2019-05-15T20:18:58.037Z,14.00
2019-05-15T20:21:25.685Z,13.90
2019-05-15T20:23:57.866Z,13.80
2019-05-15T20:26:25.285Z,13.70
2019-05-15T20:28:53.030Z,13.80
2019-05-15T20:31:21.022Z,13.70
2019-05-15T20:34:02.211Z,13.60
2019-05-15T20:36:19.356Z,13.50
2019-05-15T20:38:48.355Z,13.60
2019-05-15T20:41:18.525Z,13.60
2019-05-15T20:43:49.071Z,13.50
2019-05-15T20:46:19.019Z,13.30
2019-05-15T20:48:48.718Z,13.30
2019-05-15T20:51:18.562Z,13.30
2019-05-15T20:53:48.216Z,13.30
2019-05-15T20:56:16.334Z,13.20
2019-05-15T20:58:45.168Z,13.20
2019-05-15T21:01:13.835Z,13.10
2019-05-15T21:03:41.492Z,13.00
2019-05-15T21:06:10.802Z,12.90
2019-05-15T21:08:39.818Z,12.80
2019-05-15T21:11:11.565Z,12.70
2019-05-15T21:13:38.372Z,12.60
2019-05-15T21:16:08.273Z,12.60
2019-05-15T21:18:37.863Z,12.60
2019-05-15T21:21:05.111Z,12.50
2019-05-15T21:23:32.780Z,12.40
2019-05-15T21:26:00.631Z,12.40
2019-05-15T21:28:30.077Z,12.30
2019-05-15T21:31:00.992Z,12.40
2019-05-15T21:33:36.229Z,12.20
2019-05-15T21:36:07.856Z,12.10
2019-05-15T21:38:35.254Z,12.00
2019-05-15T21:41:02.830Z,12.00
2019-05-15T21:43:30.365Z,12.00
2019-05-15T21:45:59.271Z,11.90
2019-05-15T21:48:28.747Z,11.90
2019-05-15T21:50:57.531Z,11.90
2019-05-15T21:53:25.728Z,11.80
2019-05-15T21:55:54.149Z,11.80
2019-05-15T21:58:21.609Z,11.70
2019-05-15T22:00:51.922Z,11.70
2019-05-15T22:03:19.818Z,11.70
2019-05-15T22:05:48.773Z,11.60
2019-05-15T22:08:18.432Z,11.60
2019-05-15T22:10:48.226Z,11.60
2019-05-15T22:13:15.866Z,11.60
2019-05-15T22:15:43.464Z,11.50
2019-05-15T22:18:11.693Z,11.40
2019-05-15T22:20:39.542Z,11.40
2019-05-15T22:23:08.239Z,11.40
2019-05-15T22:25:38.405Z,11.30
2019-05-15T22:28:06.665Z,11.30
2019-05-15T22:30:34.140Z,11.20
2019-05-15T22:33:02.930Z,11.20
2019-05-15T22:35:31.333Z,11.20
2019-05-15T22:38:00.193Z,11.10
2019-05-15T22:40:31.099Z,11.10
2019-05-15T22:42:59.314Z,11.00
2019-05-15T22:45:28.677Z,11.00
2019-05-15T22:47:58.454Z,11.00
2019-05-15T22:50:27.851Z,10.90
2019-05-15T22:52:58.391Z,10.90
2019-05-15T22:55:29.193Z,10.90
2019-05-15T22:57:59.570Z,10.80
2019-05-15T23:00:28.879Z,10.80
2019-05-15T23:02:58.017Z,10.80
2019-05-15T23:05:30.982Z,10.70
2019-05-15T23:07:54.963Z,10.60
2019-05-15T23:10:22.503Z,10.60
2019-05-15T23:12:50.244Z,10.50
2019-05-15T23:15:18.983Z,10.40
2019-05-15T23:17:48.588Z,10.40
2019-05-15T23:20:17.747Z,10.40
2019-05-15T23:22:46.360Z,10.40
2019-05-15T23:25:14.019Z,10.30
2019-05-15T23:27:41.717Z,10.20
2019-05-15T23:30:09.298Z,10.10
2019-05-15T23:32:39.746Z,10.20
2019-05-15T23:35:07.393Z,10.10
2019-05-15T23:37:34.944Z,10.10
2019-05-15T23:40:02.436Z,10.00
2019-05-15T23:42:30.156Z,9.90
2019-05-15T23:44:58.745Z,9.90
2019-05-15T23:47:28.607Z,9.80
2019-05-15T23:49:57.844Z,9.80
2019-05-15T23:52:25.728Z,9.80
2019-05-15T23:54:59.051Z,9.80
2019-05-15T23:57:28.694Z,9.70
2019-05-15T23:59:56.426Z,9.70
